createdAt,value
2018-03-29T00:00:55.678Z,984.9
2018-03-29T00:02:05.268Z,984.87
2018-03-29T00:03:15.080Z,984.86
2018-03-29T00:04:25.152Z,984.84
2018-03-29T00:05:35.235Z,984.83
2018-03-29T00:06:45.047Z,984.82
2018-03-29T00:07:54.835Z,984.79
2018-03-29T00:09:04.939Z,984.82
2018-03-29T00:10:15.007Z,984.85
2018-03-29T00:11:24.829Z,984.88
2018-03-29T00:12:34.625Z,984.87
2018-03-29T00:13:44.222Z,984.83
2018-03-29T00:14:53.504Z,984.87
2018-03-29T00:16:03.569Z,984.87
2018-03-29T00:17:13.377Z,984.86
2018-03-29T00:18:23.174Z,984.83
2018-03-29T00:19:32.500Z,984.8
2018-03-29T00:20:42.055Z,984.85
2018-03-29T00:21:52.115Z,984.85
2018-03-29T00:23:01.654Z,984.91
2018-03-29T00:24:11.742Z,984.88
2018-03-29T00:25:21.835Z,984.86
2018-03-29T00:26:31.946Z,984.82
2018-03-29T00:27:41.766Z,984.83
2018-03-29T00:28:51.848Z,984.85
2018-03-29T00:30:01.672Z,984.86
2018-03-29T00:31:11.788Z,984.86
2018-03-29T00:32:21.344Z,984.88
2018-03-29T00:33:30.603Z,984.92
2018-03-29T00:34:40.666Z,984.97
2018-03-29T00:35:50.730Z,984.93
2018-03-29T00:37:00.572Z,984.83
2018-03-29T00:38:10.631Z,984.86
2018-03-29T00:39:20.696Z,984.84
2018-03-29T00:40:30.794Z,984.84
2018-03-29T00:41:40.854Z,984.81
2018-03-29T00:42:50.667Z,984.79
2018-03-29T00:44:00.474Z,984.8
2018-03-29T00:45:10.569Z,984.72
2018-03-29T00:46:20.626Z,984.74
2018-03-29T00:47:30.699Z,984.76
2018-03-29T00:48:40.303Z,984.74
2018-03-29T00:49:50.373Z,984.73
2018-03-29T00:50:59.933Z,984.7
2018-03-29T00:52:09.983Z,984.65
2018-03-29T00:53:20.058Z,984.64
2018-03-29T00:54:30.120Z,984.68
2018-03-29T00:55:40.184Z,984.61
2018-03-29T00:56:49.988Z,984.61
2018-03-29T00:57:59.808Z,984.6
2018-03-29T00:59:09.890Z,984.69
2018-03-29T01:00:20.015Z,984.71
2018-03-29T01:01:29.820Z,984.69
2018-03-29T01:02:39.898Z,984.68
2018-03-29T01:03:49.987Z,984.65
2018-03-29T01:05:00.053Z,984.64
2018-03-29T01:06:10.173Z,984.7
2018-03-29T01:07:19.983Z,984.74
2018-03-29T01:08:30.106Z,984.76
2018-03-29T01:09:40.165Z,984.78
2018-03-29T01:10:49.964Z,984.76
2018-03-29T01:12:00.036Z,984.73
2018-03-29T01:13:09.589Z,984.76
2018-03-29T01:14:19.655Z,984.81
2018-03-29T01:15:29.449Z,984.77
2018-03-29T01:16:39.518Z,984.82
2018-03-29T01:17:49.591Z,984.84
2018-03-29T01:18:59.649Z,984.77
2018-03-29T01:20:09.468Z,984.76
2018-03-29T01:21:19.619Z,984.79
2018-03-29T01:22:29.671Z,984.83
2018-03-29T01:23:39.748Z,984.86
2018-03-29T01:24:49.834Z,984.83
2018-03-29T01:25:59.632Z,984.79
2018-03-29T01:27:09.434Z,984.8
2018-03-29T01:28:19.512Z,984.76
2018-03-29T01:29:29.590Z,984.75
2018-03-29T01:30:39.645Z,984.71
2018-03-29T01:31:49.701Z,984.71
2018-03-29T01:32:59.493Z,984.7
2018-03-29T01:34:09.554Z,984.7
2018-03-29T01:35:19.678Z,984.69
2018-03-29T01:36:29.203Z,984.72
2018-03-29T01:37:39.045Z,984.75
2018-03-29T01:38:49.117Z,984.69
2018-03-29T01:39:58.908Z,984.73
2018-03-29T01:41:08.963Z,984.7
2018-03-29T01:42:19.030Z,984.65
2018-03-29T01:43:28.833Z,984.66
2018-03-29T01:44:38.895Z,984.69
2018-03-29T01:45:48.443Z,984.67
2018-03-29T01:46:58.520Z,984.66
2018-03-29T01:48:08.582Z,984.75
2018-03-29T01:49:18.406Z,984.73
2018-03-29T01:50:28.204Z,984.69
2018-03-29T01:51:38.016Z,984.77
2018-03-29T01:52:48.137Z,984.73
2018-03-29T01:53:58.199Z,984.73
2018-03-29T01:55:08.279Z,984.75
2018-03-29T01:56:18.348Z,984.77
2018-03-29T01:57:28.139Z,984.73
2018-03-29T01:58:37.693Z,984.65
2018-03-29T01:59:46.966Z,984.67
2018-03-29T02:00:56.523Z,984.69
2018-03-29T02:02:06.686Z,984.71
2018-03-29T02:03:16.507Z,984.63
2018-03-29T02:04:26.629Z,984.6
2018-03-29T02:05:36.714Z,984.56
2018-03-29T02:06:46.533Z,984.6
2018-03-29T02:07:56.615Z,984.65
2018-03-29T02:09:06.412Z,984.61
2018-03-29T02:10:16.245Z,984.61
2018-03-29T02:11:25.783Z,984.57
2018-03-29T02:12:35.581Z,984.58
2018-03-29T02:13:45.119Z,984.59
2018-03-29T02:14:54.918Z,984.58
2018-03-29T02:16:04.711Z,984.56
2018-03-29T02:17:14.512Z,984.51
2018-03-29T02:18:24.328Z,984.45
2018-03-29T02:19:34.387Z,984.45
2018-03-29T02:20:43.930Z,984.43
2018-03-29T02:21:53.784Z,984.51
2018-03-29T02:23:03.593Z,984.55
2018-03-29T02:24:13.396Z,984.61
2018-03-29T02:25:23.211Z,984.58
2018-03-29T02:26:33.020Z,984.54
2018-03-29T02:27:43.088Z,984.53
2018-03-29T02:28:53.143Z,984.53
2018-03-29T02:30:03.208Z,984.51
2018-03-29T02:31:12.758Z,984.56
2018-03-29T02:32:22.302Z,984.58
2018-03-29T02:33:32.426Z,984.55
2018-03-29T02:34:42.328Z,984.54
2018-03-29T02:35:52.403Z,984.56
2018-03-29T02:37:02.470Z,984.62
2018-03-29T02:38:12.015Z,984.65
2018-03-29T02:39:21.844Z,984.56
2018-03-29T02:40:31.672Z,984.61
2018-03-29T02:41:41.491Z,984.67
2018-03-29T02:42:51.579Z,984.7
2018-03-29T02:44:01.404Z,984.71
2018-03-29T02:45:11.292Z,984.7
2018-03-29T02:46:21.367Z,984.67
2018-03-29T02:47:31.164Z,984.65
2018-03-29T02:48:41.230Z,984.7
2018-03-29T02:49:51.049Z,984.7
2018-03-29T02:51:01.201Z,984.72
2018-03-29T02:52:11.018Z,984.67
2018-03-29T02:53:20.559Z,984.72
2018-03-29T02:54:30.388Z,984.7
2018-03-29T02:55:40.461Z,984.65
2018-03-29T02:56:49.825Z,984.67
2018-03-29T02:57:59.626Z,984.62
2018-03-29T02:59:09.172Z,984.67
2018-03-29T03:00:19.006Z,984.63
2018-03-29T03:01:28.818Z,984.61
2018-03-29T03:02:38.669Z,984.61
2018-03-29T03:03:48.543Z,984.62
2018-03-29T03:04:58.630Z,984.65
2018-03-29T03:36:50.322Z,985.08
2018-03-29T03:38:00.376Z,985.11
2018-03-29T03:39:10.173Z,985.14
2018-03-29T03:40:20.216Z,985.15
2018-03-29T03:41:30.266Z,985.2
2018-03-29T03:42:40.317Z,985.23
2018-03-29T03:43:50.113Z,985.22
2018-03-29T03:44:59.916Z,985.27
2018-03-29T03:46:09.743Z,985.35
2018-03-29T03:47:19.836Z,985.37
2018-03-29T03:48:31.413Z,985.4
2018-03-29T03:49:44.652Z,985.4
2018-03-29T03:50:54.807Z,985.41
2018-03-29T03:52:04.856Z,985.37
2018-03-29T03:53:14.665Z,985.43
2018-03-29T03:54:24.723Z,985.4
2018-03-29T03:55:34.786Z,985.43
2018-03-29T03:56:44.870Z,985.37
2018-03-29T03:57:54.946Z,985.42
2018-03-29T03:59:04.744Z,985.41
2018-03-29T04:00:14.604Z,985.44
2018-03-29T04:01:24.658Z,985.43
2018-03-29T04:02:34.751Z,985.41
2018-03-29T04:03:44.829Z,985.39
2018-03-29T04:04:54.920Z,985.42
2018-03-29T04:06:04.778Z,985.42
2018-03-29T04:07:14.814Z,985.47
2018-03-29T04:08:24.617Z,985.44
2018-03-29T04:09:34.679Z,985.46
2018-03-29T04:10:44.744Z,985.46
2018-03-29T04:11:54.866Z,985.5
2018-03-29T04:13:04.933Z,985.46
2018-03-29T04:14:14.990Z,985.45
2018-03-29T04:15:25.051Z,985.49
2018-03-29T04:16:35.122Z,985.51
2018-03-29T04:17:45.241Z,985.58
2018-03-29T04:18:55.324Z,985.51
2018-03-29T04:20:04.876Z,985.47
2018-03-29T04:21:14.978Z,985.55
2018-03-29T04:22:25.041Z,985.59
2018-03-29T04:23:34.887Z,985.61
2018-03-29T04:24:44.690Z,985.6
2018-03-29T04:25:54.763Z,985.62
2018-03-29T04:27:04.580Z,985.63
2018-03-29T04:28:14.634Z,985.64
2018-03-29T04:29:24.695Z,985.62
2018-03-29T04:30:34.745Z,985.63
2018-03-29T04:31:44.294Z,985.61
2018-03-29T04:32:53.828Z,985.65
2018-03-29T04:34:03.900Z,985.65
2018-03-29T04:35:13.990Z,985.67
2018-03-29T04:36:23.849Z,985.69
2018-03-29T04:37:33.652Z,985.66
2018-03-29T04:38:43.751Z,985.7
2018-03-29T04:39:53.549Z,985.72
2018-03-29T04:41:03.394Z,985.73
2018-03-29T04:42:12.932Z,985.78
2018-03-29T04:43:23.013Z,985.81
2018-03-29T04:44:33.091Z,985.84
2018-03-29T04:45:43.147Z,985.84
2018-03-29T04:46:52.695Z,985.83
2018-03-29T04:48:02.492Z,985.89
2018-03-29T04:49:12.617Z,985.89
2018-03-29T04:50:22.738Z,985.95
2018-03-29T04:51:32.536Z,985.91
2018-03-29T04:52:42.333Z,985.98
2018-03-29T04:53:52.122Z,985.98
2018-03-29T04:55:01.651Z,985.97
2018-03-29T04:56:11.722Z,985.95
2018-03-29T04:57:21.531Z,986
2018-03-29T04:58:31.602Z,985.92
2018-03-29T04:59:41.655Z,985.99
2018-03-29T05:00:51.714Z,986.04
2018-03-29T05:02:01.228Z,986.01
2018-03-29T05:03:11.045Z,986.07
2018-03-29T05:04:21.172Z,986.09
2018-03-29T05:05:31.238Z,986.12
2018-03-29T05:06:40.782Z,986.1
2018-03-29T05:07:50.312Z,986.08
2018-03-29T05:09:00.127Z,986.08
2018-03-29T05:10:09.707Z,986.08
2018-03-29T05:11:19.776Z,986.15
2018-03-29T05:12:29.573Z,986.18
2018-03-29T05:13:39.437Z,986.18
2018-03-29T05:14:49.242Z,986.23
2018-03-29T05:15:59.092Z,986.25
2018-03-29T05:17:08.925Z,986.22
2018-03-29T05:18:18.733Z,986.27
2018-03-29T05:19:28.513Z,986.26
2018-03-29T05:20:38.334Z,986.26
2018-03-29T05:21:48.410Z,986.28
2018-03-29T05:22:58.481Z,986.24
2018-03-29T05:24:08.032Z,986.23
2018-03-29T05:25:18.095Z,986.22
2018-03-29T05:26:28.232Z,986.22
2018-03-29T05:27:38.417Z,986.24
2018-03-29T05:28:48.570Z,986.23
2018-03-29T05:29:58.389Z,986.24
2018-03-29T05:31:07.946Z,986.23
2018-03-29T05:32:17.794Z,986.19
2018-03-29T05:33:27.388Z,986.2
2018-03-29T05:34:37.202Z,986.21
2018-03-29T05:35:47.269Z,986.24
2018-03-29T05:36:57.350Z,986.22
2018-03-29T05:38:07.163Z,986.2
2018-03-29T05:39:16.435Z,986.22
2018-03-29T05:40:26.026Z,986.27
2018-03-29T05:41:35.837Z,986.31
2018-03-29T05:42:45.648Z,986.38
2018-03-29T05:43:55.780Z,986.5
2018-03-29T05:45:05.841Z,986.58
2018-03-29T05:46:15.955Z,986.61
2018-03-29T05:47:26.018Z,986.63
2018-03-29T05:48:36.092Z,986.67
2018-03-29T05:49:45.914Z,986.69
2018-03-29T05:50:55.748Z,986.79
2018-03-29T05:52:05.843Z,986.78
2018-03-29T05:53:15.959Z,986.83
2018-03-29T05:54:25.770Z,986.85
2018-03-29T05:55:35.583Z,986.89
2018-03-29T05:56:45.647Z,986.9
2018-03-29T05:57:55.453Z,986.89
2018-03-29T05:59:05.248Z,986.9
2018-03-29T06:00:15.327Z,986.85
2018-03-29T06:01:25.380Z,986.87
2018-03-29T06:02:35.221Z,986.89
2018-03-29T06:03:45.020Z,986.84
2018-03-29T06:04:54.823Z,986.92
2018-03-29T06:06:04.367Z,986.95
2018-03-29T06:07:14.429Z,986.93
2018-03-29T06:08:24.567Z,986.98
2018-03-29T06:09:34.663Z,987.02
2018-03-29T06:10:44.760Z,987.03
2018-03-29T06:11:54.849Z,987.01
2018-03-29T06:13:04.663Z,987.07
2018-03-29T06:14:14.461Z,987.07
2018-03-29T06:15:24.013Z,987.17
2018-03-29T06:16:33.850Z,987.16
2018-03-29T06:17:43.928Z,987.17
2018-03-29T06:18:53.823Z,987.23
2018-03-29T06:20:03.109Z,987.29
2018-03-29T06:21:13.246Z,987.27
2018-03-29T06:22:22.815Z,987.33
2018-03-29T06:23:32.886Z,987.33
2018-03-29T06:24:43.033Z,987.36
2018-03-29T06:25:53.092Z,987.36
2018-03-29T06:27:02.906Z,987.41
2018-03-29T06:28:12.729Z,987.42
2018-03-29T06:29:22.535Z,987.44
2018-03-29T06:30:32.381Z,987.45
2018-03-29T06:31:42.206Z,987.54
2018-03-29T06:32:51.494Z,987.53
2018-03-29T06:34:01.051Z,987.51
2018-03-29T06:35:10.867Z,987.51
2018-03-29T06:36:20.679Z,987.52
2018-03-29T06:37:30.809Z,987.53
2018-03-29T06:38:40.915Z,987.55
2018-03-29T06:39:50.996Z,987.62
2018-03-29T06:41:00.802Z,987.6
2018-03-29T06:42:10.604Z,987.69
2018-03-29T06:43:20.696Z,987.67
2018-03-29T06:44:30.512Z,987.69
2018-03-29T06:45:40.335Z,987.68
2018-03-29T06:46:50.406Z,987.71
2018-03-29T06:48:00.624Z,987.75
2018-03-29T06:49:10.785Z,987.79
2018-03-29T06:50:20.591Z,987.86
2018-03-29T06:51:30.678Z,987.84
2018-03-29T06:52:40.499Z,987.89
2018-03-29T06:53:50.553Z,987.88
2018-03-29T06:55:00.645Z,987.9
2018-03-29T06:56:10.450Z,987.99
2018-03-29T06:57:20.256Z,987.98
2018-03-29T06:58:30.069Z,988.06
2018-03-29T06:59:39.939Z,988.05
2018-03-29T07:00:50.067Z,988
2018-03-29T07:01:59.794Z,988.07
2018-03-29T07:03:09.616Z,988.1
2018-03-29T07:04:19.706Z,988.07
2018-03-29T07:05:29.244Z,988.08
2018-03-29T07:06:39.041Z,988.08
2018-03-29T07:07:49.101Z,988.15
2018-03-29T07:08:59.163Z,988.05
2018-03-29T07:10:08.990Z,988.1
2018-03-29T07:11:18.295Z,988.1
2018-03-29T07:12:28.159Z,988.04
2018-03-29T07:13:38.230Z,988.12
2018-03-29T07:14:48.292Z,988.14
2018-03-29T07:15:58.485Z,988.06
2018-03-29T07:17:08.022Z,988.08
2018-03-29T07:18:17.822Z,988.18
2018-03-29T07:19:27.640Z,988.12
2018-03-29T07:20:37.447Z,988.2
2018-03-29T07:21:47.280Z,988.26
2018-03-29T07:22:57.115Z,988.27
2018-03-29T07:24:06.984Z,988.38
2018-03-29T07:25:16.259Z,988.36
2018-03-29T07:26:25.801Z,988.34
2018-03-29T07:27:35.602Z,988.35
2018-03-29T07:28:45.666Z,988.32
2018-03-29T07:29:56.099Z,988.31
2018-03-29T07:31:06.177Z,988.37
2018-03-29T07:32:15.993Z,988.34
2018-03-29T07:33:25.815Z,988.39
2018-03-29T07:34:35.617Z,988.45
2018-03-29T07:35:45.173Z,988.55
2018-03-29T07:36:55.246Z,988.5
2018-03-29T07:38:05.077Z,988.51
2018-03-29T07:39:14.360Z,988.59
2018-03-29T07:40:24.178Z,988.47
2018-03-29T07:41:34.031Z,988.65
2018-03-29T07:42:44.113Z,988.67
2018-03-29T07:43:54.172Z,988.56
2018-03-29T07:45:03.988Z,988.58
2018-03-29T07:46:13.794Z,988.63
2018-03-29T07:47:23.591Z,988.63
2018-03-29T07:48:33.153Z,988.65
2018-03-29T07:49:42.692Z,988.68
2018-03-29T07:50:52.501Z,988.68
2018-03-29T07:52:02.325Z,988.74
2018-03-29T07:53:12.177Z,988.79
2018-03-29T07:54:21.993Z,988.76
2018-03-29T07:55:32.069Z,988.78
2018-03-29T07:56:42.142Z,988.8
2018-03-29T07:57:51.439Z,988.75
2018-03-29T07:59:01.395Z,988.78
2018-03-29T08:00:11.492Z,988.82
2018-03-29T08:01:21.034Z,988.79
2018-03-29T08:02:31.120Z,988.82
2018-03-29T08:03:40.678Z,988.81
2018-03-29T08:04:50.528Z,988.86
2018-03-29T08:06:00.607Z,988.82
2018-03-29T08:07:10.514Z,988.81
2018-03-29T08:08:20.328Z,988.82
2018-03-29T08:09:30.435Z,988.85
2018-03-29T08:10:40.512Z,988.92
2018-03-29T08:11:50.308Z,988.92
2018-03-29T08:13:00.376Z,988.89
2018-03-29T08:14:10.439Z,988.92
2018-03-29T08:15:20.240Z,988.93
2018-03-29T08:16:30.335Z,989.04
2018-03-29T08:17:39.891Z,988.97
2018-03-29T08:18:49.173Z,989.01
2018-03-29T08:19:58.975Z,989.06
2018-03-29T08:21:09.052Z,989.1
2018-03-29T08:22:18.943Z,989.13
2018-03-29T08:23:29.026Z,989.17
2018-03-29T08:24:38.899Z,989.16
2018-03-29T08:25:48.964Z,989.1
2018-03-29T08:26:58.801Z,989.1
2018-03-29T08:28:08.958Z,989.15
2018-03-29T08:29:18.777Z,989.07
2018-03-29T08:30:28.608Z,989.15
2018-03-29T08:31:38.420Z,989.08
2018-03-29T08:32:48.237Z,989.09
2018-03-29T08:33:58.361Z,989.1
2018-03-29T08:35:07.657Z,989.1
2018-03-29T08:36:17.455Z,989.1
2018-03-29T08:37:27.268Z,989.22
2018-03-29T08:38:36.823Z,989.15
2018-03-29T08:39:46.627Z,989.17
2018-03-29T08:40:56.449Z,989.14
2018-03-29T08:42:06.287Z,989.17
2018-03-29T08:43:16.406Z,989.14
2018-03-29T08:52:17.733Z,989.11
2018-03-29T08:53:27.867Z,989.07
2018-03-29T08:54:38.027Z,989.05
2018-03-29T08:55:48.098Z,989.06
2018-03-29T08:56:58.370Z,989.01
2018-03-29T08:58:08.211Z,989.02
2018-03-29T08:59:18.059Z,989.08
2018-03-29T09:00:28.156Z,989.07
2018-03-29T09:01:38.281Z,989.06
2018-03-29T09:02:48.353Z,989.1
2018-03-29T09:03:57.953Z,989.09
2018-03-29T09:05:07.584Z,989.15
2018-03-29T09:06:17.405Z,989.1
2018-03-29T09:07:26.976Z,989.13
2018-03-29T09:08:37.066Z,989.1
2018-03-29T09:09:46.734Z,989.13
2018-03-29T09:10:56.583Z,989.13
2018-03-29T09:12:06.122Z,989.17
2018-03-29T09:13:16.201Z,989.1
2018-03-29T09:14:26.275Z,989.19
2018-03-29T09:15:35.832Z,989.15
2018-03-29T09:16:45.910Z,989.16
2018-03-29T09:17:55.736Z,989.15
2018-03-29T09:19:05.838Z,989.27
2018-03-29T09:20:15.943Z,989.24
2018-03-29T09:21:25.807Z,989.34
2018-03-29T09:22:35.874Z,989.33
2018-03-29T09:23:45.689Z,989.31
2018-03-29T09:24:55.544Z,989.37
2018-03-29T09:26:05.099Z,989.35
2018-03-29T09:27:15.030Z,989.3
2018-03-29T09:28:25.314Z,989.28
2018-03-29T09:29:35.155Z,989.27
2018-03-29T09:30:45.382Z,989.27
2018-03-29T09:31:55.286Z,989.26
2018-03-29T09:33:16.496Z,989.27
2018-03-29T09:34:26.677Z,989.24
2018-03-29T09:35:36.594Z,989.33
2018-03-29T09:36:46.583Z,989.27
2018-03-29T09:37:56.175Z,989.33
2018-03-29T09:39:05.561Z,989.36
2018-03-29T09:40:14.857Z,989.35
2018-03-29T09:41:24.977Z,989.38
2018-03-29T09:42:35.164Z,989.43
2018-03-29T09:43:44.728Z,989.35
2018-03-29T09:44:54.864Z,989.46
2018-03-29T09:46:04.947Z,989.41
2018-03-29T09:47:14.780Z,989.45
2018-03-29T09:48:24.589Z,989.45
2018-03-29T09:49:33.884Z,989.49
2018-03-29T09:50:43.961Z,989.46
2018-03-29T09:51:54.023Z,989.55
2018-03-29T09:53:03.865Z,989.57
2018-03-29T09:54:13.770Z,989.54
2018-03-29T09:55:23.322Z,989.56
2018-03-29T09:56:33.150Z,989.54
2018-03-29T09:57:43.242Z,989.58
2018-03-29T09:58:53.093Z,989.61
2018-03-29T10:00:02.928Z,989.57
2018-03-29T10:01:12.501Z,989.53
2018-03-29T10:02:22.847Z,989.58
2018-03-29T10:03:32.681Z,989.55
2018-03-29T10:04:42.760Z,989.56
2018-03-29T10:05:52.569Z,989.58
2018-03-29T10:07:02.669Z,989.55
2018-03-29T10:08:12.493Z,989.55
2018-03-29T10:09:22.580Z,989.56
2018-03-29T10:10:32.671Z,989.57
2018-03-29T10:11:42.832Z,989.54
2018-03-29T10:12:52.650Z,989.57
2018-03-29T10:14:02.492Z,989.59
2018-03-29T10:15:12.582Z,989.65
2018-03-29T10:16:22.418Z,989.66
2018-03-29T10:17:32.279Z,989.69
2018-03-29T10:18:42.177Z,989.66
2018-03-29T10:19:52.335Z,989.74
2018-03-29T10:21:02.420Z,989.72
2018-03-29T10:22:12.285Z,989.74
2018-03-29T10:23:22.427Z,989.78
2018-03-29T10:24:32.269Z,989.77
2018-03-29T10:25:41.569Z,989.76
2018-03-29T10:26:51.399Z,989.79
2018-03-29T10:28:01.235Z,989.82
2018-03-29T10:29:11.105Z,989.85
2018-03-29T10:30:20.926Z,989.85
2018-03-29T10:31:31.060Z,989.91
2018-03-29T10:32:41.246Z,989.91
2018-03-29T10:33:51.339Z,989.89
2018-03-29T10:35:01.421Z,989.89
2018-03-29T10:36:11.020Z,989.92
2018-03-29T10:37:20.869Z,989.93
2018-03-29T10:38:30.743Z,989.89
2018-03-29T10:39:40.577Z,989.86
2018-03-29T10:40:50.140Z,989.95
2018-03-29T10:42:00.246Z,989.89
2018-03-29T10:43:10.067Z,989.91
2018-03-29T10:44:19.644Z,989.96
2018-03-29T10:45:29.756Z,989.95
2018-03-29T10:46:39.679Z,989.97
2018-03-29T10:47:49.209Z,990
2018-03-29T10:48:59.309Z,990.01
2018-03-29T10:50:08.877Z,989.97
2018-03-29T10:51:18.755Z,989.95
2018-03-29T10:52:28.597Z,990.01
2018-03-29T10:53:38.844Z,990.01
2018-03-29T10:54:48.954Z,989.98
2018-03-29T10:55:58.763Z,989.94
2018-03-29T10:57:08.577Z,989.96
2018-03-29T10:58:18.136Z,990.02
2018-03-29T10:59:28.230Z,989.98
2018-03-29T11:00:37.804Z,990
2018-03-29T11:01:47.637Z,989.98
2018-03-29T11:02:57.471Z,990.03
2018-03-29T11:04:07.599Z,989.98
2018-03-29T11:05:17.461Z,990.05
2018-03-29T11:06:27.555Z,990.03
2018-03-29T11:07:37.396Z,990.03
2018-03-29T11:08:47.478Z,990.01
2018-03-29T11:09:57.045Z,990.04
2018-03-29T11:11:07.118Z,990.05
2018-03-29T11:12:17.216Z,990.02
2018-03-29T11:13:27.036Z,990.01
2018-03-29T11:14:37.107Z,990.04
2018-03-29T11:15:47.192Z,990.04
2018-03-29T11:16:56.746Z,990.06
2018-03-29T11:18:06.568Z,990.13
2018-03-29T11:19:16.746Z,990.06
2018-03-29T11:20:26.830Z,990.04
2018-03-29T11:21:36.905Z,989.97
2018-03-29T11:22:46.467Z,989.94
2018-03-29T11:23:56.318Z,989.92
2018-03-29T11:25:06.225Z,989.96
2018-03-29T11:26:16.070Z,989.88
2018-03-29T11:27:25.971Z,989.9
2018-03-29T11:28:36.068Z,989.97
2018-03-29T11:29:46.083Z,989.99
2018-03-29T11:30:55.912Z,989.97
2018-03-29T11:32:06.045Z,989.88
2018-03-29T11:33:16.219Z,989.9
2018-03-29T11:34:26.057Z,989.91
2018-03-29T11:35:36.176Z,989.92
2018-03-29T11:36:46.031Z,989.98
2018-03-29T11:37:56.166Z,989.94
2018-03-29T11:39:06.308Z,989.89
2018-03-29T11:40:16.433Z,989.94
2018-03-29T11:41:26.545Z,989.85
2018-03-29T11:42:36.359Z,989.84
2018-03-29T11:43:46.451Z,989.86
2018-03-29T11:44:56.551Z,989.86
2018-03-29T11:46:06.389Z,989.88
2018-03-29T11:47:16.241Z,989.82
2018-03-29T11:48:26.368Z,989.89
2018-03-29T11:49:36.470Z,989.81
2018-03-29T11:50:46.599Z,989.82
2018-03-29T11:51:56.438Z,989.83
2018-03-29T11:53:06.524Z,989.78
2018-03-29T11:54:16.620Z,989.74
2018-03-29T11:55:26.475Z,989.74
2018-03-29T11:56:36.567Z,989.69
2018-03-29T11:57:46.846Z,989.69
2018-03-29T11:58:56.926Z,989.71
2018-03-29T12:00:06.794Z,989.74
2018-03-29T12:01:16.905Z,989.67
2018-03-29T12:02:26.459Z,989.7
2018-03-29T12:03:36.558Z,989.69
2018-03-29T12:04:46.657Z,989.67
2018-03-29T12:05:56.981Z,989.68
2018-03-29T12:07:07.094Z,989.71
2018-03-29T12:08:17.212Z,989.73
2018-03-29T12:09:27.310Z,989.66
2018-03-29T12:10:37.396Z,989.72
2018-03-29T12:11:47.722Z,989.66
2018-03-29T12:12:57.274Z,989.68
2018-03-29T12:14:07.430Z,989.71
2018-03-29T12:15:17.267Z,989.73
2018-03-29T12:16:26.832Z,989.69
2018-03-29T12:17:36.897Z,989.7
2018-03-29T12:18:46.996Z,989.71
2018-03-29T12:19:57.129Z,989.72
2018-03-29T12:21:07.224Z,989.77
2018-03-29T12:22:17.319Z,989.72
2018-03-29T12:23:27.410Z,989.68
2018-03-29T12:24:37.497Z,989.66
2018-03-29T12:25:47.650Z,989.66
2018-03-29T12:26:57.756Z,989.67
2018-03-29T12:28:08.297Z,989.66
2018-03-29T12:29:18.403Z,989.68
2018-03-29T12:30:28.502Z,989.68
2018-03-29T12:31:38.578Z,989.69
2018-03-29T12:32:48.654Z,989.7
2018-03-29T12:33:58.485Z,989.69
2018-03-29T12:35:08.585Z,989.66
2018-03-29T12:36:18.491Z,989.73
2018-03-29T12:37:28.657Z,989.74
2018-03-29T12:38:38.779Z,989.69
2018-03-29T12:39:48.865Z,989.72
2018-03-29T12:40:58.712Z,989.71
2018-03-29T12:42:08.542Z,989.74
2018-03-29T12:43:18.372Z,989.76
2018-03-29T12:44:28.488Z,989.69
2018-03-29T12:45:38.321Z,989.77
2018-03-29T12:46:48.497Z,989.74
2018-03-29T12:47:58.434Z,989.68
2018-03-29T12:49:08.652Z,989.71
2018-03-29T12:50:18.771Z,989.71
2018-03-29T12:51:28.881Z,989.71
2018-03-29T12:52:38.712Z,989.7
2018-03-29T12:53:48.798Z,989.68
2018-03-29T12:54:59.006Z,989.71
2018-03-29T12:56:09.112Z,989.71
2018-03-29T12:57:19.201Z,989.7
2018-03-29T12:58:28.798Z,989.69
2018-03-29T12:59:38.629Z,989.69
2018-03-29T13:00:48.800Z,989.68
2018-03-29T13:01:58.906Z,989.73
2018-03-29T13:03:09.018Z,989.77
2018-03-29T13:04:18.876Z,989.76
2018-03-29T13:05:28.959Z,989.74
2018-03-29T13:06:38.246Z,989.73
2018-03-29T13:07:48.065Z,989.76
2018-03-29T13:08:58.173Z,989.7
2018-03-29T13:10:08.321Z,989.8
2018-03-29T13:11:18.132Z,989.79
2018-03-29T13:12:28.273Z,989.77
2018-03-29T13:13:38.386Z,989.76
2018-03-29T13:14:47.946Z,989.73
2018-03-29T13:15:57.486Z,989.75
2018-03-29T13:17:07.331Z,989.71
2018-03-29T13:18:17.429Z,989.69
2018-03-29T13:19:27.803Z,989.71
2018-03-29T13:20:37.671Z,989.69
2018-03-29T13:21:47.247Z,989.62
2018-03-29T13:22:57.320Z,989.67
2018-03-29T13:24:07.146Z,989.72
2018-03-29T13:25:17.315Z,989.67
2018-03-29T13:26:27.144Z,989.7
2018-03-29T13:27:37.242Z,989.73
2018-03-29T13:28:47.064Z,989.7
2018-03-29T13:29:57.235Z,989.73
2018-03-29T13:31:06.795Z,989.7
2018-03-29T13:32:16.622Z,989.73
2018-03-29T13:33:26.451Z,989.74
2018-03-29T13:34:36.028Z,989.71
2018-03-29T13:35:45.912Z,989.7
2018-03-29T13:36:55.952Z,989.72
2018-03-29T13:38:06.042Z,989.72
2018-03-29T13:39:16.129Z,989.64
2018-03-29T13:40:26.212Z,989.67
2018-03-29T13:41:35.831Z,989.69
2018-03-29T13:42:45.645Z,989.64
2018-03-29T13:43:55.475Z,989.6
2018-03-29T13:45:05.582Z,989.67
2018-03-29T13:46:14.886Z,989.65
2018-03-29T13:47:24.717Z,989.68
2018-03-29T13:48:34.530Z,989.63
2018-03-29T13:49:44.727Z,989.67
2018-03-29T13:50:54.538Z,989.62
2018-03-29T13:52:04.386Z,989.65
2018-03-29T13:53:14.209Z,989.6
2018-03-29T13:54:24.276Z,989.62
2018-03-29T13:55:34.397Z,989.61
2018-03-29T13:56:44.473Z,989.65
2018-03-29T13:57:54.574Z,989.6
2018-03-29T13:59:04.419Z,989.62
2018-03-29T14:00:14.527Z,989.6
2018-03-29T14:01:24.394Z,989.55
2018-03-29T14:02:34.217Z,989.57
2018-03-29T14:03:44.045Z,989.58
2018-03-29T14:04:54.205Z,989.56
2018-03-29T14:06:04.314Z,989.58
2018-03-29T14:07:14.411Z,989.6
2018-03-29T14:08:24.267Z,989.58
2018-03-29T14:09:34.089Z,989.59
2018-03-29T14:10:44.187Z,989.6
2018-03-29T14:11:54.272Z,989.58
2018-03-29T14:13:04.353Z,989.57
2018-03-29T14:14:13.935Z,989.56
2018-03-29T14:15:23.762Z,989.56
2018-03-29T14:16:34.076Z,989.58
2018-03-29T14:17:44.200Z,989.59
2018-03-29T14:18:54.505Z,989.59
2018-03-29T14:20:04.576Z,989.64
2018-03-29T14:21:13.860Z,989.62
2018-03-29T14:22:23.671Z,989.6
2018-03-29T14:23:33.584Z,989.61
2018-03-29T14:24:43.820Z,989.6
2018-03-29T14:25:53.670Z,989.57
2018-03-29T14:27:03.846Z,989.55
2018-03-29T14:28:13.684Z,989.59
2018-03-29T14:29:23.505Z,989.58
2018-03-29T14:30:33.756Z,989.57
2018-03-29T14:31:43.581Z,989.62
2018-03-29T14:32:53.128Z,989.64
2018-03-29T14:34:03.216Z,989.65
2018-03-29T14:35:13.045Z,989.68
2018-03-29T14:36:22.375Z,989.61
2018-03-29T14:37:32.173Z,989.62
2018-03-29T14:38:42.261Z,989.62
2018-03-29T14:39:52.391Z,989.57
2018-03-29T14:41:02.226Z,989.59
2018-03-29T14:42:12.124Z,989.59
2018-03-29T14:43:21.973Z,989.6
2018-03-29T14:44:31.829Z,989.58
2018-03-29T14:45:41.925Z,989.62
2018-03-29T14:46:52.140Z,989.6
2018-03-29T14:48:02.538Z,989.63
2018-03-29T14:49:15.346Z,989.62
2018-03-29T14:50:27.590Z,989.59
2018-03-29T14:51:40.589Z,989.55
2018-03-29T14:52:52.663Z,989.51
2018-03-29T14:54:05.574Z,989.55
2018-03-29T14:55:17.990Z,989.51
2018-03-29T14:56:29.642Z,989.49
2018-03-29T14:57:40.185Z,989.49
2018-03-29T14:58:51.470Z,989.47
2018-03-29T15:00:01.057Z,989.48
2018-03-29T15:01:11.257Z,989.44
2018-03-29T15:02:21.329Z,989.43
2018-03-29T15:03:30.619Z,989.42
2018-03-29T15:04:40.724Z,989.43
2018-03-29T15:05:50.568Z,989.39
2018-03-29T15:07:00.899Z,989.34
2018-03-29T15:08:10.467Z,989.34
2018-03-29T15:09:20.320Z,989.33
2018-03-29T15:10:30.135Z,989.32
2018-03-29T15:11:39.975Z,989.27
2018-03-29T15:12:49.787Z,989.25
2018-03-29T15:13:59.938Z,989.27
2018-03-29T15:15:10.026Z,989.25